Time;durP1;ratioP1;P1;durP2;ratioP2;P2;SDS_P1;SDS_P2;PMS_P1;PMS_P2;Temp;Humidity;BMP_temperature;BMP_pressure;BME280_temperature;BME280_humidity;BME280_pressure;Samples;Min_cycle;Max_cycle;Signal;HPM_P1;HPM_P2
2023/05/18 00:10:54;;;;;;;0.20;0.15;;;;;;;17.97;57.86;96047.91;5036855;28;20377;-29
2023/05/18 00:41:35;;;;;;;4.40;0.20;;;;;;;17.87;57.51;96079.47;5035841;28;20416;-30
2023/05/18 00:54:32;;;;;;;0.52;0.20;;;;;;;18.02;57.12;96102.09;5035172;28;20496;-30
2023/05/18 01:10:24;;;;;;;0.43;0.20;;;;;;;17.71;57.97;96088.25;5034908;28;20064;-31
2023/05/18 01:26:28;;;;;;;0.20;0.10;;;;;;;17.70;57.79;96097.72;5031499;28;20558;-31
2023/05/18 01:55:51;;;;;;;1.15;0.20;;;;;;;18.00;56.55;96126.50;5034038;28;20500;-31
2023/05/18 02:11:45;;;;;;;0.88;0.10;;;;;;;17.90;56.24;96127.91;5034112;28;20082;-30
2023/05/18 02:27:37;;;;;;;3.47;0.20;;;;;;;17.97;56.50;96143.16;5028938;28;20064;-31
2023/05/18 02:40:45;;;;;;;0.85;0.10;;;;;;;17.91;56.38;96145.88;5033624;28;20064;-29
2023/05/18 02:56:40;;;;;;;0.00;0.00;;;;;;;17.75;56.86;96144.41;5033452;28;20036;-29
2023/05/18 02:59:05;;;;;;;0.40;0.10;;;;;;;17.82;56.21;96145.97;5033013;28;20025;-29
2023/05/18 03:11:55;;;;;;;0.98;0.10;;;;;;;17.63;56.73;96136.50;5033071;28;20060;-29
2023/05/18 03:27:47;;;;;;;0.13;0.08;;;;;;;17.70;56.51;96147.09;5029088;28;20055;-29
2023/05/18 03:43:39;;;;;;;0.10;0.03;;;;;;;17.40;56.76;96144.44;5036742;28;20032;-30
2023/05/18 03:56:38;;;;;;;0.10;0.10;;;;;;;17.62;56.47;96143.22;5036487;28;20040;-31
2023/05/18 04:12:30;;;;;;;0.25;0.15;;;;;;;17.56;56.07;96157.59;5035941;28;20040;-29
2023/05/18 04:28:23;;;;;;;0.10;0.10;;;;;;;17.57;56.32;96178.31;5029246;28;20064;-30
2023/05/18 04:44:17;;;;;;;0.10;0.10;;;;;;;17.64;56.06;96187.41;5035359;28;20381;-30
2023/05/18 04:57:18;;;;;;;0.10;0.10;;;;;;;17.72;55.97;96183.78;5035757;28;20032;-30
2023/05/18 05:13:11;;;;;;;0.10;0.10;;;;;;;17.62;56.33;96189.84;5034928;28;20163;-30
2023/05/18 05:29:04;;;;;;;0.10;0.10;;;;;;;17.61;56.29;96189.09;5028056;28;20115;-29
2023/05/18 05:58:23;;;;;;;0.20;0.17;;;;;;;17.75;55.81;96209.50;5041632;28;20032;-29
2023/05/18 06:14:15;;;;;;;0.22;0.10;;;;;;;17.56;56.47;96228.13;5033611;28;20060;-30
2023/05/18 06:30:09;;;;;;;0.10;0.10;;;;;;;17.72;56.82;96244.13;5027524;28;20074;-29
2023/05/18 06:43:30;;;;;;;1.40;0.15;;;;;;;17.70;56.84;96248.56;5033497;28;20035;-29
2023/05/18 06:59:22;;;;;;;0.20;0.15;;;;;;;17.64;57.32;96253.22;5039105;28;20036;-29
2023/05/18 07:15:14;;;;;;;1.63;0.25;;;;;;;17.82;57.39;96269.41;5033013;28;20051;-31
2023/05/18 07:45:31;;;;;;;2.15;0.40;;;;;;;18.04;56.94;96286.22;5033141;28;20561;-29
2023/05/18 08:01:27;;;;;;;3.30;0.57;;;;;;;18.13;57.39;96305.28;5039916;28;20052;-29
2023/05/18 08:14:28;;;;;;;4.30;0.55;;;;;;;18.02;57.71;96321.59;5032457;28;20569;-30
2023/05/18 08:30:21;;;;;;;2.70;0.40;;;;;;;18.09;57.94;96321.19;5029454;28;20140;-29
2023/05/18 08:46:24;;;;;;;2.47;0.40;;;;;;;18.21;57.96;96338.56;5035669;28;20032;-29
2023/05/18 09:16:04;;;;;;;0.75;0.20;;;;;;;18.02;58.53;96354.53;5037901;28;20115;-29
2023/05/18 09:31:55;;;;;;;2.53;0.60;;;;;;;18.13;58.59;96360.19;5033013;28;20057;-30
2023/05/18 10:01:13;;;;;;;1.52;0.40;;;;;;;18.60;57.16;96374.78;5033820;28;20072;-29
2023/05/18 10:17:06;;;;;;;1.67;0.60;;;;;;;18.48;57.30;96362.13;5034010;28;20036;-31
2023/05/18 10:33:00;;;;;;;1.10;0.40;;;;;;;18.63;57.21;96344.38;5037136;28;20052;-29
2023/05/18 10:46:14;;;;;;;1.13;0.35;;;;;;;18.74;57.56;96343.75;5033582;28;20041;-30
2023/05/18 11:02:09;;;;;;;0.35;0.22;;;;;;;18.48;58.15;96353.91;5033305;28;20072;-29
2023/05/18 11:18:12;;;;;;;0.77;0.50;;;;;;;18.57;58.03;96349.00;5032929;28;20042;-29
2023/05/18 11:31:57;;;;;;;0.43;0.30;;;;;;;18.49;58.63;96360.91;5032316;28;20036;-29
2023/05/18 11:48:43;;;;;;;2.17;0.90;;;;;;;18.28;60.14;96377.38;5033221;28;20053;-29
2023/05/18 12:02:07;;;;;;;1.63;0.70;;;;;;;18.09;65.12;96381.56;5036299;28;20087;-29
2023/05/18 12:17:59;;;;;;;2.03;1.10;;;;;;;18.26;65.66;96376.31;5036144;28;20383;-29
2023/05/18 12:33:53;;;;;;;1.10;0.70;;;;;;;18.46;64.97;96375.59;5028289;28;20132;-31
2023/05/18 12:49:48;;;;;;;0.90;0.70;;;;;;;18.44;64.51;96384.28;5040668;28;20044;-29
2023/05/18 13:02:50;;;;;;;1.10;0.60;;;;;;;18.53;62.54;96386.19;5035932;28;20047;-29
2023/05/18 13:18:45;;;;;;;1.35;0.50;;;;;;;18.82;61.16;96377.06;5042245;28;20060;-29
2023/05/18 13:34:37;;;;;;;2.20;0.60;;;;;;;18.78;60.87;96351.78;5027444;28;20128;-29
2023/05/18 13:50:36;;;;;;;1.23;0.63;;;;;;;18.74;60.45;96354.75;5034618;28;20044;-30
2023/05/18 14:03:32;;;;;;;0.77;0.70;;;;;;;18.88;60.90;96356.66;5034032;28;20079;-29
2023/05/18 14:19:24;;;;;;;2.80;1.13;;;;;;;18.48;66.09;96367.63;5033459;28;20063;-31
2023/05/18 14:21:50;;;;;;;7.50;1.00;;;;;;;18.48;66.23;96379.38;5033879;28;20025;-29
2023/05/18 14:34:21;;;;;;;1.70;0.85;;;;;;;18.26;66.89;96385.31;5026754;28;20048;-30
2023/05/18 14:50:14;;;;;;;3.65;1.30;;;;;;;18.33;67.22;96370.41;5040874;28;20111;-30
2023/05/18 15:06:33;;;;;;;0.85;0.80;;;;;;;18.48;67.00;96378.59;5040459;28;20146;-29
2023/05/18 15:19:25;;;;;;;1.08;0.80;;;;;;;18.46;66.97;96392.81;5033122;28;20044;-29
2023/05/18 15:35:18;;;;;;;0.80;0.60;;;;;;;18.38;67.24;96393.69;5030174;28;20057;-29
2023/05/18 15:51:30;;;;;;;0.80;0.70;;;;;;;18.50;66.79;96396.13;5037004;28;20166;-30
2023/05/18 16:04:54;;;;;;;0.70;0.47;;;;;;;18.37;67.12;96387.47;5036522;28;20032;-29
2023/05/18 16:20:45;;;;;;;4.88;3.75;;;;;;;18.54;66.17;96382.94;5043777;28;20041;-29
2023/05/18 16:36:37;;;;;;;5.22;3.55;;;;;;;18.75;65.30;96391.97;5028756;28;20053;-29
2023/05/18 16:52:30;;;;;;;6.55;2.97;;;;;;;18.52;66.09;96395.66;5035481;28;20036;-29
2023/05/18 17:05:35;;;;;;;8.95;7.80;;;;;;;18.47;66.23;96407.31;5035584;28;20547;-31
2023/05/18 17:21:29;;;;;;;9.88;6.68;;;;;;;18.49;65.68;96422.06;5035204;28;20029;-29
2023/05/18 17:37:22;;;;;;;5.07;3.17;;;;;;;18.57;65.62;96431.41;5027966;28;20115;-29
2023/05/18 17:53:15;;;;;;;5.20;2.60;;;;;;;18.60;65.67;96435.22;5034750;28;20044;-29
2023/05/18 18:06:21;;;;;;;3.53;2.72;;;;;;;18.48;66.10;96433.53;5034307;28;20107;-29
2023/05/18 18:22:14;;;;;;;3.15;2.10;;;;;;;18.57;66.30;96452.63;5037298;28;20068;-29
2023/05/18 18:38:07;;;;;;;3.30;2.80;;;;;;;18.63;65.99;96448.75;5028880;28;20113;-29
2023/05/18 19:07:28;;;;;;;3.60;3.30;;;;;;;18.66;65.65;96466.28;5033542;28;20099;-29
2023/05/18 19:23:20;;;;;;;9.70;7.45;;;;;;;18.61;66.21;96484.19;5033043;28;20147;-29
2023/05/18 19:39:15;;;;;;;6.65;4.28;;;;;;;18.51;66.56;96488.25;5028461;28;20056;-29
2023/05/18 19:52:26;;;;;;;4.55;3.70;;;;;;;18.46;66.52;96507.38;5032973;28;20063;-30
2023/05/18 20:08:18;;;;;;;6.88;4.68;;;;;;;18.51;66.09;96515.72;5032323;28;20040;-29
2023/05/18 20:24:11;;;;;;;8.20;5.13;;;;;;;18.39;66.30;96513.28;5041802;28;20091;-31
2023/05/18 20:53:56;;;;;;;4.65;4.10;;;;;;;18.50;65.87;96525.19;5035444;28;20091;-27
2023/05/18 21:09:48;;;;;;;4.07;2.90;;;;;;;18.46;66.02;96510.13;5035163;28;20120;-29
2023/05/18 21:39:08;;;;;;;3.47;2.60;;;;;;;18.23;66.67;96523.53;5028623;28;20397;-29
2023/05/18 21:55:00;;;;;;;7.22;3.22;;;;;;;18.56;65.61;96511.53;5034165;28;19924;-29
2023/05/18 22:10:53;;;;;;;6.43;3.20;;;;;;;18.33;66.29;96509.69;5034215;28;20040;-30
2023/05/18 22:24:10;;;;;;;4.63;2.88;;;;;;;18.30;66.21;96506.66;5035927;28;20028;-30
2023/05/18 22:40:05;;;;;;;3.65;2.70;;;;;;;18.49;65.35;96512.69;5030003;28;20602;-29
2023/05/18 22:55:57;;;;;;;5.18;3.03;;;;;;;18.43;65.33;96511.84;5033019;28;20496;-31
2023/05/18 23:11:51;;;;;;;3.30;2.65;;;;;;;18.40;65.50;96501.06;5033376;28;20160;-29
2023/05/18 23:24:52;;;;;;;3.30;2.72;;;;;;;18.41;64.95;96486.13;5032960;28;20045;-30
2023/05/18 23:41:22;;;;;;;;;;;;;;;18.17;65.65;96484.25;5026809;28;20104;-31
2023/05/18 23:57:15;;;;;;;3.35;2.28;;;;;;;18.19;65.48;96470.78;5036252;28;20071;-29
